Time;durP1;ratioP1;P1;durP2;ratioP2;P2;SDS_P1;SDS_P2;PMS_P1;PMS_P2;Temp;Humidity;BMP_temperature;BMP_pressure;BME280_temperature;BME280_humidity;BME280_pressure;Samples;Min_cycle;Max_cycle;Signal;HPM_P1;HPM_P2
2023/09/28 00:01:35;;;;;;;;;;;;;;;;;;5068546;28;19991;-72
2023/09/28 00:04:01;;;;;;;;;;;;;;;;;;5075234;28;19909;-72
2023/09/28 00:06:27;;;;;;;;;;;;;;;;;;5064173;28;20394;-74
2023/09/28 00:08:53;;;;;;;;;;;;;;;;;;5061737;28;19909;-72
2023/09/28 00:11:19;;;;;;;;;;;;;;;;;;5062836;28;19920;-71
2023/09/28 00:13:45;;;;;;;;;;;;;;;;;;5063422;28;19944;-71
2023/09/28 00:16:10;;;;;;;;;;;;;;;;;;5063863;28;19908;-71
2023/09/28 00:18:36;;;;;;;;;;;;;;;;;;5061456;28;19958;-72
2023/09/28 00:21:02;;;;;;;;;;;;;;;;;;5061514;28;19909;-72
2023/09/28 00:23:28;;;;;;;;;;;;;;;;;;5071366;28;19953;-72
2023/09/28 00:25:55;;;;;;;;;;;;;;;;;;5065029;28;19961;-72
2023/09/28 00:28:21;;;;;;;;;;;;;;;;;;5066044;28;19919;-72
2023/09/28 00:30:48;;;;;;;;;;;;;;;;;;5068003;28;20371;-72
2023/09/28 00:33:14;;;;;;;;;;;;;;;;;;5061741;28;19909;-73
2023/09/28 00:35:40;;;;;;;;;;;;;;;;;;5064650;28;19909;-72
2023/09/28 00:38:07;;;;;;;;;;;;;;;;;;5064905;28;20402;-72
2023/09/28 00:40:32;;;;;;;;;;;;;;;;;;5062948;28;20290;-72
2023/09/28 00:42:58;;;;;;;;;;;;;;;;;;5061634;28;19995;-72
2023/09/28 00:45:24;;;;;;;;;;;;;;;;;;5079230;28;19908;-73
2023/09/28 00:47:50;;;;;;;;;;;;;;;;;;5076762;28;20296;-72
2023/09/28 00:50:17;;;;;;;;;;;;;;;;;;5065555;28;19920;-72
2023/09/28 00:52:42;;;;;;;;;;;;;;;;;;5068397;28;19920;-72
2023/09/28 00:55:09;;;;;;;;;;;;;;;;;;5060885;28;20343;-74
2023/09/28 00:57:35;;;;;;;;;;;;;;;;;;5064297;28;19963;-72
2023/09/28 01:00:09;;;;;;;;;;;;;;;;;;5072835;28;20327;-72
2023/09/28 01:02:35;;;;;;;;;;;;;;;;;;5062232;28;20571;-71
2023/09/28 01:05:04;;;;;;;;;;;;;;;;;;5068015;28;19909;-72
2023/09/28 01:07:31;;;;;;;;;;;;;;;;;;5066962;28;19908;-72
2023/09/28 01:09:57;;;;;;;;;;;;;;;;;;5078094;28;19935;-72
2023/09/28 01:12:23;;;;;;;;;;;;;;;;;;5067742;28;19912;-73
2023/09/28 01:14:50;;;;;;;;;;;;;;;;;;5063469;28;20293;-72
2023/09/28 01:17:16;;;;;;;;;;;;;;;;;;5064323;28;19913;-71
2023/09/28 01:19:42;;;;;;;;;;;;;;;;;;5068262;28;19909;-73
2023/09/28 01:22:08;;;;;;;;;;;;;;;;;;5068745;28;19912;-72
2023/09/28 01:24:33;;;;;;;;;;;;;;;;;;5065976;28;19913;-72
2023/09/28 01:26:59;;;;;;;;;;;;;;;;;;5077435;28;19909;-73
2023/09/28 01:29:25;;;;;;;;;;;;;;;;;;5068263;28;19955;-73
2023/09/28 01:31:51;;;;;;;;;;;;;;;;;;5073713;28;19912;-72
2023/09/28 01:34:17;;;;;;;;;;;;;;;;;;5060057;28;20293;-72
2023/09/28 01:36:43;;;;;;;;;;;;;;;;;;5071547;28;19942;-72
2023/09/28 01:39:10;;;;;;;;;;;;;;;;;;5064676;28;20000;-73
2023/09/28 01:41:36;;;;;;;;;;;;;;;;;;5059903;28;19969;-72
2023/09/28 01:44:02;;;;;;;;;;;;;;;;;;5067765;28;19924;-72
2023/09/28 01:46:28;;;;;;;;;;;;;;;;;;5066575;28;20003;-71
2023/09/28 01:48:54;;;;;;;;;;;;;;;;;;5064477;28;20571;-72
2023/09/28 01:51:19;;;;;;;;;;;;;;;;;;5079583;28;19913;-72
2023/09/28 01:53:46;;;;;;;;;;;;;;;;;;5075903;28;20317;-72
2023/09/28 01:56:12;;;;;;;;;;;;;;;;;;5067873;28;19908;-73
2023/09/28 01:58:37;;;;;;;;;;;;;;;;;;5065150;28;19908;-73
2023/09/28 02:01:03;;;;;;;;;;;;;;;;;;5064284;28;20280;-73
2023/09/28 02:03:29;;;;;;;;;;;;;;;;;;5066305;28;19913;-73
2023/09/28 02:05:55;;;;;;;;;;;;;;;;;;5067534;28;19962;-72
2023/09/28 02:08:21;;;;;;;;;;;;;;;;;;5074388;28;20283;-72
2023/09/28 02:10:47;;;;;;;;;;;;;;;;;;5070411;28;19916;-73
2023/09/28 02:13:14;;;;;;;;;;;;;;;;;;5062787;28;20023;-72
2023/09/28 02:15:40;;;;;;;;;;;;;;;;;;5067085;28;19909;-74
2023/09/28 02:18:06;;;;;;;;;;;;;;;;;;5067610;28;20338;-74
2023/09/28 02:20:32;;;;;;;;;;;;;;;;;;5065387;28;19916;-74
2023/09/28 02:22:57;;;;;;;;;;;;;;;;;;5073237;28;19913;-76
2023/09/28 02:25:24;;;;;;;;;;;;;;;;;;5065652;28;19963;-76
2023/09/28 02:27:50;;;;;;;;;;;;;;;;;;5066054;28;20003;-74
2023/09/28 02:30:22;;;;;;;;;;;;;;;;;;5067099;28;20358;-73
2023/09/28 02:32:49;;;;;;;;;;;;;;;;;;5062215;28;20291;-73
2023/09/28 02:35:16;;;;;;;;;;;;;;;;;;5063694;28;20476;-76
2023/09/28 02:37:43;;;;;;;;;;;;;;;;;;5067014;28;19908;-75
2023/09/28 02:40:09;;;;;;;;;;;;;;;;;;5075561;28;19908;-71
2023/09/28 02:42:35;;;;;;;;;;;;;;;;;;5064154;28;19973;-71
2023/09/28 02:45:02;;;;;;;;;;;;;;;;;;5061846;28;19995;-71
2023/09/28 02:47:28;;;;;;;;;;;;;;;;;;5068111;28;19995;-72
2023/09/28 02:49:54;;;;;;;;;;;;;;;;;;5072363;28;20005;-73
2023/09/28 02:52:20;;;;;;;;;;;;;;;;;;5067526;28;19916;-72
2023/09/28 02:54:46;;;;;;;;;;;;;;;;;;5069891;28;19991;-77
2023/09/28 02:57:12;;;;;;;;;;;;;;;;;;5062763;28;20257;-76
2023/09/28 02:59:38;;;;;;;;;;;;;;;;;;5079047;28;19908;-76
2023/09/28 03:02:05;;;;;;;;;;;;;;;;;;5082958;28;19915;-76
2023/09/28 03:04:34;;;;;;;;;;;;;;;;;;5069618;28;19931;-76
2023/09/28 03:07:00;;;;;;;;;;;;;;;;;;5063001;28;19909;-77
2023/09/28 03:09:26;;;;;;;;;;;;;;;;;;5064786;28;19919;-78
2023/09/28 03:11:53;;;;;;;;;;;;;;;;;;5065938;28;19957;-73
2023/09/28 03:14:19;;;;;;;;;;;;;;;;;;5054965;28;19916;-75
2023/09/28 03:16:45;;;;;;;;;;;;;;;;;;5062631;28;20344;-76
2023/09/28 03:19:11;;;;;;;;;;;;;;;;;;5062691;28;19912;-75
2023/09/28 03:21:39;;;;;;;;;;;;;;;;;;5064616;28;19908;-74
2023/09/28 03:24:05;;;;;;;;;;;;;;;;;;5069122;28;19909;-76
2023/09/28 03:26:31;;;;;;;;;;;;;;;;;;5071174;28;19917;-75
2023/09/28 03:28:59;;;;;;;;;;;;;;;;;;5059853;28;19916;-76
2023/09/28 03:31:29;;;;;;;;;;;;;;;;;;5064429;28;19912;-75
2023/09/28 03:33:55;;;;;;;;;;;;;;;;;;5075770;28;19995;-75
2023/09/28 03:36:20;;;;;;;;;;;;;;;;;;5072716;28;19993;-75
2023/09/28 03:38:47;;;;;;;;;;;;;;;;;;5062293;28;19920;-75
2023/09/28 03:41:13;;;;;;;;;;;;;;;;;;5062660;28;20023;-76
2023/09/28 03:43:39;;;;;;;;;;;;;;;;;;5065467;28;20421;-75
2023/09/28 03:46:07;;;;;;;;;;;;;;;;;;5064117;28;19967;-76
2023/09/28 03:48:33;;;;;;;;;;;;;;;;;;5062355;28;20370;-77
2023/09/28 03:50:59;;;;;;;;;;;;;;;;;;5068545;28;19908;-75
2023/09/28 03:53:25;;;;;;;;;;;;;;;;;;5073352;28;20011;-72
2023/09/28 03:55:51;;;;;;;;;;;;;;;;;;5065237;28;20375;-73
2023/09/28 03:58:17;;;;;;;;;;;;;;;;;;5065015;28;19909;-73
2023/09/28 04:00:43;;;;;;;;;;;;;;;;;;5072480;28;19945;-73
2023/09/28 04:03:09;;;;;;;;;;;;;;;;;;5065220;28;19909;-73
2023/09/28 04:05:35;;;;;;;;;;;;;;;;;;5064833;28;20458;-73
2023/09/28 04:08:01;;;;;;;;;;;;;;;;;;5072163;28;19915;-73
2023/09/28 04:10:27;;;;;;;;;;;;;;;;;;5073583;28;20272;-75
2023/09/28 04:12:53;;;;;;;;;;;;;;;;;;5067594;28;19943;-76
2023/09/28 04:15:19;;;;;;;;;;;;;;;;;;5062812;28;20264;-75
2023/09/28 04:17:45;;;;;;;;;;;;;;;;;;5063774;28;20256;-76
2023/09/28 04:20:11;;;;;;;;;;;;;;;;;;5071361;28;19963;-76
2023/09/28 04:22:37;;;;;;;;;;;;;;;;;;5071722;28;19913;-75
2023/09/28 04:25:05;;;;;;;;;;;;;;;;;;5065025;28;20000;-77
2023/09/28 04:27:31;;;;;;;;;;;;;;;;;;5072694;28;19917;-76
2023/09/28 04:29:57;;;;;;;;;;;;;;;;;;5063805;28;19908;-76
2023/09/28 04:32:23;;;;;;;;;;;;;;;;;;5072849;28;19951;-77
2023/09/28 04:34:51;;;;;;;;;;;;;;;;;;5079396;28;20299;-77
2023/09/28 04:37:18;;;;;;;;;;;;;;;;;;5064974;28;19909;-76
2023/09/28 04:39:44;;;;;;;;;;;;;;;;;;5069736;28;20406;-76
2023/09/28 04:42:11;;;;;;;;;;;;;;;;;;5072655;28;20261;-74
2023/09/28 04:44:36;;;;;;;;;;;;;;;;;;5067609;28;20004;-76
2023/09/28 04:47:02;;;;;;;;;;;;;;;;;;5068165;28;19919;-77
2023/09/28 04:49:28;;;;;;;;;;;;;;;;;;5073288;28;20283;-78
2023/09/28 04:51:55;;;;;;;;;;;;;;;;;;5072717;28;19913;-74
2023/09/28 04:54:21;;;;;;;;;;;;;;;;;;5056914;28;20351;-75
2023/09/28 04:56:46;;;;;;;;;;;;;;;;;;5067944;28;19947;-75
2023/09/28 04:59:12;;;;;;;;;;;;;;;;;;5059279;28;20284;-75
2023/09/28 05:01:38;;;;;;;;;;;;;;;;;;5064725;28;20391;-77
2023/09/28 05:04:04;;;;;;;;;;;;;;;;;;5063142;28;20390;-78
2023/09/28 05:06:30;;;;;;;;;;;;;;;;;;5079940;28;19914;-77
2023/09/28 05:08:56;;;;;;;;;;;;;;;;;;5061433;28;20008;-74
2023/09/28 05:11:22;;;;;;;;;;;;;;;;;;5062846;28;19912;-75
2023/09/28 05:13:48;;;;;;;;;;;;;;;;;;5076412;28;19913;-73
2023/09/28 05:16:14;;;;;;;;;;;;;;;;;;5080659;28;19931;-73
2023/09/28 05:18:40;;;;;;;;;;;;;;;;;;5071089;28;20383;-74
2023/09/28 05:21:06;;;;;;;;;;;;;;;;;;5064394;28;20401;-73
2023/09/28 05:23:32;;;;;;;;;;;;;;;;;;5077613;28;19916;-72
2023/09/28 05:25:58;;;;;;;;;;;;;;;;;;5063243;28;19931;-73
2023/09/28 05:28:23;;;;;;;;;;;;;;;;;;5063184;28;20299;-72
2023/09/28 05:30:49;;;;;;;;;;;;;;;;;;5060191;28;19909;-73
2023/09/28 05:33:16;;;;;;;;;;;;;;;;;;5059867;28;19910;-73
2023/09/28 05:35:42;;;;;;;;;;;;;;;;;;5077090;28;19909;-73
2023/09/28 05:38:08;;;;;;;;;;;;;;;;;;5062028;28;20382;-74
2023/09/28 05:40:34;;;;;;;;;;;;;;;;;;5061536;28;19908;-73
2023/09/28 05:43:00;;;;;;;;;;;;;;;;;;5071682;28;20295;-71
2023/09/28 05:45:26;;;;;;;;;;;;;;;;;;5071939;28;20268;-72
2023/09/28 05:47:54;;;;;;;;;;;;;;;;;;5072058;28;20286;-72
2023/09/28 05:50:20;;;;;;;;;;;;;;;;;;5071079;28;19916;-72
2023/09/28 05:52:48;;;;;;;;;;;;;;;;;;5077910;28;19916;-73
2023/09/28 05:55:15;;;;;;;;;;;;;;;;;;5064803;28;19935;-73
2023/09/28 05:57:40;;;;;;;;;;;;;;;;;;5071529;28;19912;-73
2023/09/28 06:00:09;;;;;;;;;;;;;;;;;;5077712;28;19989;-73
2023/09/28 06:02:35;;;;;;;;;;;;;;;;;;5074332;28;19909;-73
2023/09/28 06:05:01;;;;;;;;;;;;;;;;;;5068637;28;20000;-72
2023/09/28 06:07:27;;;;;;;;;;;;;;;;;;5066166;28;20387;-73
2023/09/28 06:09:53;;;;;;;;;;;;;;;;;;5067425;28;19908;-72
2023/09/28 06:12:19;;;;;;;;;;;;;;;;;;5078856;28;19913;-73
2023/09/28 06:14:45;;;;;;;;;;;;;;;;;;5074149;28;19988;-73
2023/09/28 06:17:11;;;;;;;;;;;;;;;;;;5067287;28;19909;-73
2023/09/28 06:19:37;;;;;;;;;;;;;;;;;;5075231;28;19913;-73
2023/09/28 06:22:05;;;;;;;;;;;;;;;;;;5068006;28;20291;-73
2023/09/28 06:24:31;;;;;;;;;;;;;;;;;;5068857;28;19908;-73
2023/09/28 06:26:56;;;;;;;;;;;;;;;;;;5068717;28;19919;-73
2023/09/28 06:29:22;;;;;;;;;;;;;;;;;;5064887;28;19951;-73
2023/09/28 06:31:48;;;;;;;;;;;;;;;;;;5071978;28;19921;-74
2023/09/28 06:34:14;;;;;;;;;;;;;;;;;;5075888;28;20354;-74
2023/09/28 06:36:41;;;;;;;;;;;;;;;;;;5062684;28;20011;-74
2023/09/28 06:39:08;;;;;;;;;;;;;;;;;;5063140;28;20039;-74
2023/09/28 06:41:34;;;;;;;;;;;;;;;;;;5074255;28;19924;-73
2023/09/28 06:44:00;;;;;;;;;;;;;;;;;;5066864;28;19917;-72
2023/09/28 06:46:26;;;;;;;;;;;;;;;;;;5068334;28;19956;-72
2023/09/28 06:48:52;;;;;;;;;;;;;;;;;;5074670;28;20332;-71
2023/09/28 06:51:19;;;;;;;;;;;;;;;;;;5075711;28;20008;-72
2023/09/28 06:53:45;;;;;;;;;;;;;;;;;;5082460;28;19908;-72
2023/09/28 06:56:11;;;;;;;;;;;;;;;;;;5076063;28;19913;-72
2023/09/28 06:58:37;;;;;;;;;;;;;;;;;;5073399;28;19909;-72
2023/09/28 07:01:03;;;;;;;;;;;;;;;;;;5067484;28;19909;-72
2023/09/28 07:03:31;;;;;;;;;;;;;;;;;;5064709;28;19909;-71
2023/09/28 07:05:57;;;;;;;;;;;;;;;;;;5065373;28;19913;-71
2023/09/28 07:08:23;;;;;;;;;;;;;;;;;;5066343;28;20425;-71
2023/09/28 07:10:49;;;;;;;;;;;;;;;;;;5069110;28;19967;-71
2023/09/28 07:13:15;;;;;;;;;;;;;;;;;;5071115;28;19916;-71
2023/09/28 07:15:42;;;;;;;;;;;;;;;;;;5065779;28;19909;-71
2023/09/28 07:18:08;;;;;;;;;;;;;;;;;;5066088;28;20324;-71
2023/09/28 07:20:34;;;;;;;;;;;;;;;;;;5063345;28;19976;-71
2023/09/28 07:23:00;;;;;;;;;;;;;;;;;;5062724;28;19936;-71
2023/09/28 07:25:25;;;;;;;;;;;;;;;;;;5072226;28;19915;-71
2023/09/28 07:27:54;;;;;;;;;;;;;;;;;;5065626;28;19909;-71
2023/09/28 07:30:20;;;;;;;;;;;;;;;;;;5065377;28;19908;-70
2023/09/28 07:32:46;;;;;;;;;;;;;;;;;;5060539;28;19923;-70
2023/09/28 07:35:13;;;;;;;;;;;;;;;;;;5061584;28;20280;-70
2023/09/28 07:37:39;;;;;;;;;;;;;;;;;;5065270;28;19962;-71
2023/09/28 07:40:06;;;;;;;;;;;;;;;;;;5065375;28;19912;-70
2023/09/28 07:42:32;;;;;;;;;;;;;;;;;;5064243;28;19952;-71
2023/09/28 07:44:58;;;;;;;;;;;;;;;;;;5061418;28;20311;-70
2023/09/28 07:47:24;;;;;;;;;;;;;;;;;;5062995;28;19940;-71
2023/09/28 07:49:52;;;;;;;;;;;;;;;;;;5064996;28;19999;-71
2023/09/28 07:52:18;;;;;;;;;;;;;;;;;;5065836;28;19912;-71
2023/09/28 07:54:44;;;;;;;;;;;;;;;;;;5064616;28;19995;-72
2023/09/28 07:57:10;;;;;;;;;;;;;;;;;;5062531;28;20551;-72
2023/09/28 07:59:36;;;;;;;;;;;;;;;;;;5067326;28;19914;-72
2023/09/28 08:02:02;;;;;;;;;;;;;;;;;;5075761;28;19908;-72
2023/09/28 08:04:28;;;;;;;;;;;;;;;;;;5062312;28;19909;-72
2023/09/28 08:06:54;;;;;;;;;;;;;;;;;;5061237;28;19908;-71
2023/09/28 08:09:20;;;;;;;;;;;;;;;;;;5062437;28;19962;-71
2023/09/28 08:11:46;;;;;;;;;;;;;;;;;;5064659;28;20256;-70
2023/09/28 08:14:15;;;;;;;;;;;;;;;;;;5064309;28;19909;-70
2023/09/28 08:16:41;;;;;;;;;;;;;;;;;;5061625;28;19996;-71
2023/09/28 08:19:07;;;;;;;;;;;;;;;;;;5060906;28;20594;-71
2023/09/28 08:21:34;;;;;;;;;;;;;;;;;;5064506;28;19917;-70
2023/09/28 08:23:59;;;;;;;;;;;;;;;;;;5063040;28;19966;-70
2023/09/28 08:26:25;;;;;;;;;;;;;;;;;;5062119;28;20376;-70
2023/09/28 08:28:52;;;;;;;;;;;;;;;;;;5060979;28;19944;-71
2023/09/28 08:31:19;;;;;;;;;;;;;;;;;;5061523;28;19913;-70
2023/09/28 08:33:44;;;;;;;;;;;;;;;;;;5064065;28;19915;-70
2023/09/28 08:36:13;;;;;;;;;;;;;;;;;;5064211;28;20003;-71
2023/09/28 08:38:38;;;;;;;;;;;;;;;;;;5062525;28;19914;-71
2023/09/28 08:41:04;;;;;;;;;;;;;;;;;;5060993;28;19913;-70
2023/09/28 08:43:30;;;;;;;;;;;;;;;;;;5062935;28;20390;-71
2023/09/28 08:45:56;;;;;;;;;;;;;;;;;;5064328;28;19976;-71
2023/09/28 08:48:22;;;;;;;;;;;;;;;;;;5063747;28;19909;-71
2023/09/28 08:50:49;;;;;;;;;;;;;;;;;;5060899;28;19908;-70
2023/09/28 08:53:15;;;;;;;;;;;;;;;;;;5060864;28;19913;-69
2023/09/28 08:55:40;;;;;;;;;;;;;;;;;;5070967;28;19958;-70
2023/09/28 08:58:06;;;;;;;;;;;;;;;;;;5064226;28;19912;-71
2023/09/28 09:00:32;;;;;;;;;;;;;;;;;;5062268;28;19917;-70
2023/09/28 09:02:58;;;;;;;;;;;;;;;;;;5060455;28;20404;-70
2023/09/28 09:05:29;;;;;;;;;;;;;;;;;;5062129;28;19974;-71
2023/09/28 09:07:55;;;;;;;;;;;;;;;;;;5072481;28;19959;-71
2023/09/28 09:10:20;;;;;;;;;;;;;;;;;;5063757;28;20292;-70
2023/09/28 09:12:47;;;;;;;;;;;;;;;;;;5058998;28;19923;-72
2023/09/28 09:15:13;;;;;;;;;;;;;;;;;;5060075;28;20372;-70
2023/09/28 09:17:39;;;;;;;;;;;;;;;;;;5063684;28;19991;-70
2023/09/28 09:20:08;;;;;;;;;;;;;;;;;;5063926;28;19913;-71
2023/09/28 09:22:34;;;;;;;;;;;;;;;;;;5063379;28;19908;-71
2023/09/28 09:25:00;;;;;;;;;;;;;;;;;;5060281;28;19909;-70
2023/09/28 09:27:26;;;;;;;;;;;;;;;;;;5062436;28;19909;-71
2023/09/28 09:29:52;;;;;;;;;;;;;;;;;;5065354;28;19916;-72
2023/09/28 09:32:18;;;;;;;;;;;;;;;;;;5067804;28;19920;-70
2023/09/28 09:34:44;;;;;;;;;;;;;;;;;;5075162;28;19908;-70
2023/09/28 09:37:10;;;;;;;;;;;;;;;;;;5068783;28;19916;-71
2023/09/28 09:39:36;;;;;;;;;;;;;;;;;;5083606;28;19913;-71
2023/09/28 09:42:02;;;;;;;;;;;;;;;;;;5075016;28;19989;-70
2023/09/28 09:44:28;;;;;;;;;;;;;;;;;;5076025;28;20435;-71
2023/09/28 09:46:54;;;;;;;;;;;;;;;;;;5066227;28;19909;-70
2023/09/28 09:49:20;;;;;;;;;;;;;;;;;;5066251;28;19913;-70
2023/09/28 09:51:46;;;;;;;;;;;;;;;;;;5069470;28;19919;-71
2023/09/28 09:54:13;;;;;;;;;;;;;;;;;;5067438;28;19962;-71
2023/09/28 09:56:39;;;;;;;;;;;;;;;;;;5064529;28;20003;-71
2023/09/28 09:59:05;;;;;;;;;;;;;;;;;;5056912;28;20364;-70
2023/09/28 10:01:31;;;;;;;;;;;;;;;;;;5065777;28;19966;-71
2023/09/28 10:03:57;;;;;;;;;;;;;;;;;;5061801;28;19913;-70
2023/09/28 10:06:23;;;;;;;;;;;;;;;;;;5064522;28;19915;-70
2023/09/28 10:08:49;;;;;;;;;;;;;;;;;;5063643;28;19916;-71
2023/09/28 10:11:15;;;;;;;;;;;;;;;;;;5063809;28;19955;-71
2023/09/28 10:13:41;;;;;;;;;;;;;;;;;;5066926;28;19915;-71
2023/09/28 10:16:07;;;;;;;;;;;;;;;;;;5065507;28;19913;-71
2023/09/28 10:18:33;;;;;;;;;;;;;;;;;;5063362;28;19952;-71
2023/09/28 10:21:02;;;;;;;;;;;;;;;;;;5063298;28;20380;-71
2023/09/28 10:23:31;;;;;;;;;;;;;;;;;;5066158;28;20007;-70
2023/09/28 10:25:57;;;;;;;;;;;;;;;;;;5066501;28;20295;-71
2023/09/28 10:28:23;;;;;;;;;;;;;;;;;;5066045;28;19913;-70
2023/09/28 10:30:49;;;;;;;;;;;;;;;;;;5061713;28;19909;-70
2023/09/28 10:33:16;;;;;;;;;;;;;;;;;;5062992;28;20430;-71
2023/09/28 10:35:42;;;;;;;;;;;;;;;;;;5066287;28;20275;-70
2023/09/28 10:38:08;;;;;;;;;;;;;;;;;;5066518;28;20003;-70
2023/09/28 10:40:34;;;;;;;;;;;;;;;;;;5073718;28;20004;-71
2023/09/28 10:43:00;;;;;;;;;;;;;;;;;;5067858;28;19920;-71
2023/09/28 10:45:26;;;;;;;;;;;;;;;;;;5055908;28;19935;-71
2023/09/28 10:47:51;;;;;;;;;;;;;;;;;;5053949;28;19909;-71
2023/09/28 10:50:17;;;;;;;;;;;;;;;;;;5052226;28;19931;-71
2023/09/28 10:52:43;;;;;;;;;;;;;;;;;;5053738;28;19920;-72
2023/09/28 10:55:09;;;;;;;;;;;;;;;;;;5053651;28;19908;-72
2023/09/28 10:57:35;;;;;;;;;;;;;;;;;;5052779;28;19908;-72
2023/09/28 11:00:01;;;;;;;;;;;;;;;;;;5053747;28;19986;-72
2023/09/28 11:02:27;;;;;;;;;;;;;;;;;;5053956;28;19913;-72
2023/09/28 11:04:53;;;;;;;;;;;;;;;;;;5056271;28;19917;-72
2023/09/28 11:07:20;;;;;;;;;;;;;;;;;;5053847;28;20326;-73
2023/09/28 11:09:46;;;;;;;;;;;;;;;;;;5053681;28;20376;-72
2023/09/28 11:12:13;;;;;;;;;;;;;;;;;;5053511;28;19919;-72
2023/09/28 11:14:39;;;;;;;;;;;;;;;;;;5053339;28;19908;-73
2023/09/28 11:17:04;;;;;;;;;;;;;;;;;;5053417;28;20410;-72
2023/09/28 11:19:30;;;;;;;;;;;;;;;;;;5053316;28;19954;-72
2023/09/28 11:21:57;;;;;;;;;;;;;;;;;;5053472;28;19912;-72
2023/09/28 11:24:23;;;;;;;;;;;;;;;;;;5053593;28;20427;-72
2023/09/28 11:26:49;;;;;;;;;;;;;;;;;;5053356;28;20011;-73
2023/09/28 11:29:15;;;;;;;;;;;;;;;;;;5068863;28;20058;-73
2023/09/28 11:31:41;;;;;;;;;;;;;;;;;;5053269;28;19920;-73
2023/09/28 11:34:07;;;;;;;;;;;;;;;;;;5068298;28;20414;-72
2023/09/28 11:36:33;;;;;;;;;;;;;;;;;;5053261;28;19912;-72
2023/09/28 11:38:59;;;;;;;;;;;;;;;;;;5053098;28;19963;-72
2023/09/28 11:41:26;;;;;;;;;;;;;;;;;;5052950;28;19912;-72
2023/09/28 11:43:52;;;;;;;;;;;;;;;;;;5052597;28;19916;-72
2023/09/28 11:46:18;;;;;;;;;;;;;;;;;;5051933;28;19913;-73
2023/09/28 11:48:44;;;;;;;;;;;;;;;;;;5053014;28;19916;-73
2023/09/28 11:51:10;;;;;;;;;;;;;;;;;;5051558;28;19956;-74
2023/09/28 11:53:36;;;;;;;;;;;;;;;;;;5052085;28;19968;-73
2023/09/28 11:56:02;;;;;;;;;;;;;;;;;;5053147;28;20378;-73
2023/09/28 11:58:27;;;;;;;;;;;;;;;;;;5053357;28;19912;-72
2023/09/28 12:00:53;;;;;;;;;;;;;;;;;;5053020;28;19954;-72
2023/09/28 12:03:19;;;;;;;;;;;;;;;;;;5052524;28;20338;-72
2023/09/28 12:05:46;;;;;;;;;;;;;;;;;;5053264;28;19913;-72
2023/09/28 12:08:13;;;;;;;;;;;;;;;;;;5052614;28;19909;-72
2023/09/28 12:10:39;;;;;;;;;;;;;;;;;;5052546;28;19909;-74
2023/09/28 12:13:05;;;;;;;;;;;;;;;;;;5052211;28;19913;-73
2023/09/28 12:15:31;;;;;;;;;;;;;;;;;;5052976;28;19931;-73
2023/09/28 12:17:57;;;;;;;;;;;;;;;;;;5052651;28;19909;-74
2023/09/28 12:20:24;;;;;;;;;;;;;;;;;;5052620;28;20394;-73
2023/09/28 12:22:51;;;;;;;;;;;;;;;;;;5051968;28;20383;-71
2023/09/28 12:25:18;;;;;;;;;;;;;;;;;;5052143;28;20012;-72
2023/09/28 12:27:44;;;;;;;;;;;;;;;;;;5050802;28;19944;-73
2023/09/28 12:30:12;;;;;;;;;;;;;;;;;;5052274;28;19912;-72
2023/09/28 12:32:38;;;;;;;;;;;;;;;;;;5051867;28;19924;-72
2023/09/28 12:35:07;;;;;;;;;;;;;;;;;;5051817;28;20008;-72
2023/09/28 12:37:36;;;;;;;;;;;;;;;;;;5051770;28;19963;-72
2023/09/28 12:40:04;;;;;;;;;;;;;;;;;;5051447;28;19954;-71
2023/09/28 12:42:32;;;;;;;;;;;;;;;;;;5052028;28;19990;-71
2023/09/28 12:44:58;;;;;;;;;;;;;;;;;;5051579;28;19913;-72
2023/09/28 12:47:24;;;;;;;;;;;;;;;;;;5051986;28;20273;-71
2023/09/28 12:49:51;;;;;;;;;;;;;;;;;;5052432;28;19931;-72
2023/09/28 12:52:16;;;;;;;;;;;;;;;;;;5051809;28;20001;-72
2023/09/28 12:54:44;;;;;;;;;;;;;;;;;;5051827;28;19913;-73
2023/09/28 12:57:10;;;;;;;;;;;;;;;;;;5052132;28;20003;-72
2023/09/28 12:59:36;;;;;;;;;;;;;;;;;;5051722;28;19955;-73
2023/09/28 13:02:05;;;;;;;;;;;;;;;;;;5055822;28;20000;-72
2023/09/28 13:04:31;;;;;;;;;;;;;;;;;;5052292;28;19962;-72
2023/09/28 13:06:58;;;;;;;;;;;;;;;;;;5056512;28;19912;-72
2023/09/28 13:09:25;;;;;;;;;;;;;;;;;;5055623;28;20376;-73
2023/09/28 13:11:51;;;;;;;;;;;;;;;;;;5056641;28;19913;-72
2023/09/28 13:14:25;;;;;;;;;;;;;;;;;;5055701;28;19909;-72
2023/09/28 13:16:51;;;;;;;;;;;;;;;;;;5055632;28;19996;-72
2023/09/28 13:19:18;;;;;;;;;;;;;;;;;;5055906;28;19991;-72
2023/09/28 13:21:46;;;;;;;;;;;;;;;;;;5055525;28;19909;-72
2023/09/28 13:24:12;;;;;;;;;;;;;;;;;;5055221;28;20407;-72
2023/09/28 13:26:38;;;;;;;;;;;;;;;;;;5054117;28;19913;-72
2023/09/28 13:29:05;;;;;;;;;;;;;;;;;;5055551;28;19905;-72
2023/09/28 13:31:31;;;;;;;;;;;;;;;;;;5055259;28;19950;-72
2023/09/28 13:33:58;;;;;;;;;;;;;;;;;;5054614;28;19916;-72
2023/09/28 13:36:25;;;;;;;;;;;;;;;;;;5055431;28;19912;-72
2023/09/28 13:38:51;;;;;;;;;;;;;;;;;;5055598;28;20004;-72
2023/09/28 13:41:17;;;;;;;;;;;;;;;;;;5055448;28;19913;-72
2023/09/28 13:43:45;;;;;;;;;;;;;;;;;;5054884;28;19927;-72
2023/09/28 13:46:11;;;;;;;;;;;;;;;;;;5057071;28;19912;-73
2023/09/28 13:48:37;;;;;;;;;;;;;;;;;;5081713;28;19958;-72
2023/09/28 13:51:04;;;;;;;;;;;;;;;;;;5090191;28;20429;-72
2023/09/28 13:53:30;;;;;;;;;;;;;;;;;;5094960;28;20404;-71
2023/09/28 13:55:56;;;;;;;;;;;;;;;;;;5088796;28;20018;-73
2023/09/28 13:58:22;;;;;;;;;;;;;;;;;;5074964;28;19982;-73
2023/09/28 14:00:50;;;;;;;;;;;;;;;;;;5083349;28;20371;-73
2023/09/28 14:03:16;;;;;;;;;;;;;;;;;;5075300;28;19908;-73
2023/09/28 14:05:42;;;;;;;;;;;;;;;;;;5056585;28;19916;-72
2023/09/28 14:08:10;;;;;;;;;;;;;;;;;;5055046;28;20291;-72
2023/09/28 14:10:36;;;;;;;;;;;;;;;;;;5055037;28;20447;-73
2023/09/28 14:13:02;;;;;;;;;;;;;;;;;;5053469;28;19978;-73
2023/09/28 14:15:29;;;;;;;;;;;;;;;;;;5054135;28;19995;-73
2023/09/28 14:17:55;;;;;;;;;;;;;;;;;;5054857;28;19909;-74
2023/09/28 14:20:22;;;;;;;;;;;;;;;;;;5055443;28;19919;-72
2023/09/28 14:22:49;;;;;;;;;;;;;;;;;;5054546;28;19913;-73
2023/09/28 14:25:15;;;;;;;;;;;;;;;;;;5055059;28;19909;-73
2023/09/28 14:27:41;;;;;;;;;;;;;;;;;;5055143;28;20352;-73
2023/09/28 14:30:07;;;;;;;;;;;;;;;;;;5054383;28;19909;-73
2023/09/28 14:32:34;;;;;;;;;;;;;;;;;;5054170;28;19995;-73
2023/09/28 14:35:01;;;;;;;;;;;;;;;;;;5053128;28;20425;-72
2023/09/28 14:37:28;;;;;;;;;;;;;;;;;;5054296;28;19936;-72
2023/09/28 14:39:54;;;;;;;;;;;;;;;;;;5054484;28;19940;-73
2023/09/28 14:42:19;;;;;;;;;;;;;;;;;;5053658;28;19912;-73
2023/09/28 14:44:45;;;;;;;;;;;;;;;;;;5053895;28;19912;-71
2023/09/28 14:47:11;;;;;;;;;;;;;;;;;;5053978;28;19912;-71
2023/09/28 14:49:37;;;;;;;;;;;;;;;;;;5054115;28;19988;-72
2023/09/28 14:52:03;;;;;;;;;;;;;;;;;;5053781;28;20389;-72
2023/09/28 14:54:29;;;;;;;;;;;;;;;;;;5053810;28;20015;-72
2023/09/28 14:56:55;;;;;;;;;;;;;;;;;;5053678;28;19909;-72
2023/09/28 14:59:22;;;;;;;;;;;;;;;;;;5053509;28;20357;-71
2023/09/28 15:01:48;;;;;;;;;;;;;;;;;;5053879;28;20269;-72
2023/09/28 15:04:13;;;;;;;;;;;;;;;;;;5053778;28;19925;-74
2023/09/28 15:06:40;;;;;;;;;;;;;;;;;;5052426;28;19905;-73
2023/09/28 15:09:06;;;;;;;;;;;;;;;;;;5053783;28;19916;-73
2023/09/28 15:11:32;;;;;;;;;;;;;;;;;;5053404;28;19967;-72
2023/09/28 15:13:58;;;;;;;;;;;;;;;;;;5053760;28;19912;-73
2023/09/28 15:16:24;;;;;;;;;;;;;;;;;;5053971;28;19970;-73
2023/09/28 15:18:50;;;;;;;;;;;;;;;;;;5053448;28;20430;-73
2023/09/28 15:21:16;;;;;;;;;;;;;;;;;;5053166;28;19927;-73
2023/09/28 15:23:41;;;;;;;;;;;;;;;;;;5053069;28;20432;-72
2023/09/28 15:26:08;;;;;;;;;;;;;;;;;;5051891;28;19905;-73
2023/09/28 15:28:39;;;;;;;;;;;;;;;;;;5051223;28;19921;-73
2023/09/28 15:31:05;;;;;;;;;;;;;;;;;;5053385;28;19905;-73
2023/09/28 15:33:31;;;;;;;;;;;;;;;;;;5052868;28;19936;-73
2023/09/28 15:35:58;;;;;;;;;;;;;;;;;;5052829;28;20391;-73
2023/09/28 15:38:24;;;;;;;;;;;;;;;;;;5060154;28;19938;-72
2023/09/28 15:40:50;;;;;;;;;;;;;;;;;;5085048;28;20359;-72
2023/09/28 15:43:16;;;;;;;;;;;;;;;;;;5091693;28;19916;-72
2023/09/28 15:45:42;;;;;;;;;;;;;;;;;;5082375;28;19913;-73
2023/09/28 15:48:08;;;;;;;;;;;;;;;;;;5088872;28;19961;-73
2023/09/28 15:50:33;;;;;;;;;;;;;;;;;;5093403;28;20363;-72
2023/09/28 15:52:59;;;;;;;;;;;;;;;;;;5092953;28;19957;-72
2023/09/28 15:55:25;;;;;;;;;;;;;;;;;;5093046;28;19953;-72
2023/09/28 15:57:51;;;;;;;;;;;;;;;;;;5073744;28;19951;-72
2023/09/28 16:00:17;;;;;;;;;;;;;;;;;;5060109;28;19963;-72
2023/09/28 16:02:43;;;;;;;;;;;;;;;;;;5052486;28;19909;-73
2023/09/28 16:05:09;;;;;;;;;;;;;;;;;;5051739;28;20007;-72
2023/09/28 16:07:36;;;;;;;;;;;;;;;;;;5062399;28;19955;-72
2023/09/28 16:10:02;;;;;;;;;;;;;;;;;;5083223;28;19912;-72
2023/09/28 16:12:28;;;;;;;;;;;;;;;;;;5091572;28;19931;-73
2023/09/28 16:14:54;;;;;;;;;;;;;;;;;;5075234;28;19913;-73
2023/09/28 16:17:21;;;;;;;;;;;;;;;;;;5063320;28;19913;-73
2023/09/28 16:19:47;;;;;;;;;;;;;;;;;;5056951;28;19923;-73
2023/09/28 16:22:13;;;;;;;;;;;;;;;;;;5059857;28;20299;-72
2023/09/28 16:24:39;;;;;;;;;;;;;;;;;;5080588;28;19913;-74
2023/09/28 16:27:05;;;;;;;;;;;;;;;;;;5078049;28;20062;-73
2023/09/28 16:29:31;;;;;;;;;;;;;;;;;;5082293;28;19908;-73
2023/09/28 16:31:57;;;;;;;;;;;;;;;;;;5087198;28;19916;-72
2023/09/28 16:34:23;;;;;;;;;;;;;;;;;;5090873;28;19915;-73
2023/09/28 16:36:49;;;;;;;;;;;;;;;;;;5050891;28;20287;-72
2023/09/28 16:39:15;;;;;;;;;;;;;;;;;;5051906;28;19955;-72